Time;durP1;ratioP1;P1;durP2;ratioP2;P2;SDS_P1;SDS_P2;PMS_P1;PMS_P2;Temp;Humidity;BMP_temperature;BMP_pressure;BME280_temperature;BME280_humidity;BME280_pressure;Samples;Min_cycle;Max_cycle;Signal;HPM_P1;HPM_P2
2021/11/17 02:27:22;;;;;;;56.07;31.97;;;102.80;2227.20;;;;;;4704647;30;20031;-91
2021/11/17 02:30:04;;;;;;;47.13;30.50;;;102.70;2227.20;;;;;;4689519;30;20380;-92
2021/11/17 02:32:55;;;;;;;49.57;30.83;;;102.70;2227.20;;;;;;4689409;30;20379;-92
2021/11/17 02:36:00;;;;;;;46.20;30.57;;;102.70;2227.20;;;;;;4704515;30;20384;-92
2021/11/17 02:39:20;;;;;;;56.53;32.75;;;102.70;2227.20;;;;;;4716982;30;20440;-93
2021/11/17 02:42:08;;;;;;;49.47;30.85;;;102.70;2227.20;;;;;;4650736;30;20436;-91
2021/11/17 02:44:56;;;;;;;49.83;30.47;;;102.60;2227.20;;;;;;4772905;29;20495;-92
2021/11/17 02:47:51;;;;;;;49.92;30.98;;;102.60;2227.20;;;;;;4776430;29;20397;-91
2021/11/17 02:50:26;;;;;;;50.37;31.40;;;102.60;2227.20;;;;;;4773526;29;20388;-91
2021/11/17 02:53:14;;;;;;;50.07;33.53;;;102.60;2227.20;;;;;;4790882;29;20404;-91
2021/11/17 02:56:02;;;;;;;51.45;31.98;;;102.60;2227.20;;;;;;4790829;29;20440;-93
2021/11/17 02:58:37;;;;;;;54.20;32.08;;;102.60;2227.20;;;;;;4776499;29;20377;-93
2021/11/17 03:01:26;;;;;;;50.55;31.55;;;102.60;2227.20;;;;;;4790947;29;20374;-93
2021/11/17 03:04:02;;;;;;;52.83;31.57;;;102.60;2227.20;;;;;;4790861;29;20400;-91
2021/11/17 03:06:33;;;;;;;48.28;32.25;;;102.60;2227.20;;;;;;4776624;29;20594;-91
2021/11/17 03:09:23;;;;;;;50.33;32.37;;;102.60;2227.20;;;;;;4791035;29;20342;-91
2021/11/17 03:11:49;;;;;;;51.57;31.63;;;102.60;2227.20;;;;;;4775790;29;20358;-91
2021/11/17 03:14:45;;;;;;;50.13;31.97;;;102.50;2227.20;;;;;;4790639;29;20046;-93
2021/11/17 03:17:36;;;;;;;50.47;31.05;;;102.60;2227.20;;;;;;4790619;29;20381;-92
2021/11/17 03:20:18;;;;;;;53.83;32.53;;;102.50;2227.20;;;;;;4777009;29;20426;-93
2021/11/17 03:23:11;;;;;;;55.87;34.43;;;102.50;2227.20;;;;;;4775722;29;20493;-92
2021/11/17 03:26:05;;;;;;;50.63;32.23;;;102.50;2227.20;;;;;;4778775;29;20377;-91
2021/11/17 03:28:47;;;;;;;56.85;33.30;;;102.50;2227.20;;;;;;4779090;29;20357;-92
2021/11/17 03:31:38;;;;;;;53.80;34.70;;;102.50;2227.20;;;;;;4779875;29;20039;-92
2021/11/17 03:34:23;;;;;;;63.53;35.47;;;102.50;2227.20;;;;;;4781116;29;20425;-92
2021/11/17 03:37:08;;;;;;;50.57;31.37;;;102.50;2227.20;;;;;;4778708;29;20419;-91
2021/11/17 03:39:58;;;;;;;57.63;33.83;;;102.50;2227.20;;;;;;4778611;29;20392;-92
2021/11/17 03:42:53;;;;;;;47.23;32.10;;;102.50;2227.20;;;;;;4793557;29;20369;-92
2021/11/17 03:45:30;;;;;;;51.47;31.10;;;102.40;2227.20;;;;;;4778524;29;20381;-91
2021/11/17 03:48:40;;;;;;;55.10;32.20;;;102.40;2227.20;;;;;;4778484;29;20427;-92
2021/11/17 03:51:21;;;;;;;50.23;30.37;;;102.40;2227.20;;;;;;4775294;30;20442;-92
2021/11/17 03:54:11;;;;;;;52.67;32.03;;;102.40;2227.20;;;;;;4760755;30;20397;-92
2021/11/17 03:57:06;;;;;;;49.43;31.10;;;102.40;2227.20;;;;;;4775410;30;20443;-91
2021/11/17 04:00:01;;;;;;;49.45;32.53;;;102.40;2227.20;;;;;;4759868;30;20429;-91
2021/11/17 04:02:57;;;;;;;48.53;31.20;;;102.40;2227.20;;;;;;4762518;30;20381;-91
2021/11/17 04:05:41;;;;;;;47.10;31.53;;;102.40;2227.20;;;;;;4762080;30;20424;-91
2021/11/17 04:08:20;;;;;;;55.77;32.70;;;77.70;2227.20;;;;;;4774540;30;20483;-92
2021/11/17 04:11:13;;;;;;;48.87;31.37;;;77.70;2227.20;;;;;;4759691;30;20441;-92
2021/11/17 04:14:00;;;;;;;50.87;30.60;;;77.70;2227.20;;;;;;4774420;30;20463;-92
2021/11/17 04:16:32;;;;;;;52.67;30.50;;;77.70;2227.20;;;;;;4789260;30;20382;-91
2021/11/17 04:19:21;;;;;;;50.37;31.43;;;77.70;2227.20;;;;;;4759565;30;20393;-91
2021/11/17 04:22:02;;;;;;;48.63;31.27;;;102.40;2227.20;;;;;;4769179;29;20425;-91
2021/11/17 04:24:47;;;;;;;49.57;31.23;;;77.70;2227.20;;;;;;4792846;29;20427;-91
2021/11/17 04:27:13;;;;;;;49.00;31.43;;;77.70;2227.20;;;;;;4777943;29;20373;-91
2021/11/17 04:30:00;;;;;;;48.57;29.47;;;77.70;2227.20;;;;;;4792633;29;20376;-91
2021/11/17 04:32:41;;;;;;;51.50;31.10;;;77.70;2227.20;;;;;;4792740;29;20500;-92
2021/11/17 04:35:22;;;;;;;48.07;31.27;;;77.60;2227.20;;;;;;4791787;29;20366;-94
2021/11/17 04:38:25;;;;;;;49.60;31.37;;;77.60;2227.20;;;;;;4778591;29;20374;-93
2021/11/17 04:40:51;;;;;;;50.00;32.23;;;77.60;2227.20;;;;;;4792486;29;20445;-90
2021/11/17 04:43:50;;;;;;;48.07;31.77;;;77.50;2227.20;;;;;;4792422;29;20377;-91
2021/11/17 04:46:45;;;;;;;49.33;30.23;;;77.50;2227.20;;;;;;4777520;29;20388;-91
2021/11/17 04:49:24;;;;;;;50.70;32.17;;;77.50;2227.20;;;;;;4791440;29;20385;-93
2021/11/17 04:52:15;;;;;;;50.70;31.80;;;77.50;2227.20;;;;;;4778192;29;20388;-91
2021/11/17 04:54:50;;;;;;;46.60;31.23;;;77.40;2227.20;;;;;;4777373;29;20393;-92
2021/11/17 04:57:26;;;;;;;47.30;30.43;;;77.40;2227.20;;;;;;4777435;29;20377;-92
2021/11/17 05:00:31;;;;;;;51.90;32.40;;;77.40;2227.20;;;;;;4778173;29;20366;-91
2021/11/17 05:03:12;;;;;;;47.50;30.00;;;77.40;2227.20;;;;;;4777741;29;20406;-93
2021/11/17 05:05:51;;;;;;;48.77;30.70;;;77.40;2227.20;;;;;;4776953;29;20431;-91
2021/11/17 05:08:48;;;;;;;49.97;31.80;;;77.30;2227.20;;;;;;4777114;29;20418;-93
2021/11/17 05:11:20;;;;;;;51.77;31.90;;;77.30;2227.20;;;;;;4779480;29;20377;-91
2021/11/17 05:13:47;;;;;;;53.80;33.33;;;77.30;2227.20;;;;;;4792065;29;20376;-91
2021/11/17 05:16:31;;;;;;;53.70;32.80;;;77.30;2227.20;;;;;;4792027;29;20380;-92
2021/11/17 05:19:28;;;;;;;49.90;32.05;;;77.30;2227.20;;;;;;4776946;29;20362;-91
2021/11/17 05:22:33;;;;;;;52.00;32.47;;;77.30;2227.20;;;;;;4777129;29;20392;-92
2021/11/17 05:25:29;;;;;;;58.43;35.10;;;77.30;2227.20;;;;;;4777327;29;20479;-91
2021/11/17 05:28:26;;;;;;;52.73;32.43;;;77.30;2227.20;;;;;;4777428;29;20346;-91
2021/11/17 05:31:17;;;;;;;50.80;32.37;;;77.30;2227.20;;;;;;4777317;29;20361;-91
2021/11/17 05:33:55;;;;;;;53.17;35.37;;;77.30;2227.20;;;;;;4779030;29;20389;-92
2021/11/17 05:36:54;;;;;;;49.63;33.13;;;77.30;2227.20;;;;;;4776784;29;20370;-91
2021/11/17 05:39:32;;;;;;;51.73;33.30;;;77.20;2227.20;;;;;;4776903;29;20373;-92
2021/11/17 05:42:23;;;;;;;53.30;33.13;;;77.30;2227.20;;;;;;4776967;29;20397;-92
2021/11/17 05:45:11;;;;;;;54.47;34.90;;;77.30;2227.20;;;;;;4776871;29;20434;-91
2021/11/17 05:47:54;;;;;;;66.87;42.87;;;77.30;2227.20;;;;;;4791204;29;20057;-92
2021/11/17 05:50:36;;;;;;;62.80;39.43;;;77.30;2227.20;;;;;;4776307;29;20377;-92
2021/11/17 05:53:18;;;;;;;70.47;40.43;;;77.30;2227.20;;;;;;4777760;29;20075;-91
2021/11/17 05:56:02;;;;;;;80.20;45.73;;;77.20;2227.20;;;;;;4776480;29;20492;-91
2021/11/17 05:58:35;;;;;;;;;;;77.20;2227.20;;;;;;4791812;29;20381;-91
2021/11/17 06:01:24;;;;;;;152.57;67.07;;;77.20;2227.20;;;;;;4776395;29;20256;-91
2021/11/17 06:03:57;;;;;;;186.50;78.33;;;77.20;2227.20;;;;;;4776384;29;20410;-91
2021/11/17 06:06:22;;;;;;;121.07;55.70;;;77.20;2227.20;;;;;;4791378;29;20430;-91
2021/11/17 06:08:54;;;;;;;108.77;55.00;;;77.20;2227.20;;;;;;4791174;29;20061;-91
2021/11/17 06:11:27;;;;;;;135.53;64.63;;;77.30;2227.20;;;;;;4791175;29;20376;-91
2021/11/17 06:13:56;;;;;;;120.35;56.33;;;77.30;2227.20;;;;;;4791166;29;20381;-89
2021/11/17 06:16:23;;;;;;;128.17;60.33;;;77.30;2227.20;;;;;;4791118;29;20382;-90
2021/11/17 06:18:49;;;;;;;120.77;55.43;;;77.40;2227.20;;;;;;4791284;29;20050;-91
2021/11/17 06:21:17;;;;;;;147.67;62.43;;;77.40;2227.20;;;;;;4791574;29;20404;-91
2021/11/17 06:23:55;;;;;;;90.73;52.70;;;77.40;2227.20;;;;;;4791302;29;20373;-91
2021/11/17 06:26:25;;;;;;;74.77;50.03;;;77.50;2227.20;;;;;;4791814;29;20338;-91
2021/11/17 06:28:58;;;;;;;88.80;55.97;;;77.50;2227.20;;;;;;4790992;29;20426;-90
2021/11/17 06:31:26;;;;;;;155.20;91.93;;;77.50;2227.20;;;;;;4790975;29;20062;-90
2021/11/17 06:33:52;;;;;;;104.17;69.10;;;77.60;2227.20;;;;;;4790941;29;20027;-90
2021/11/17 06:36:19;;;;;;;79.87;54.53;;;77.60;2227.20;;;;;;4791149;29;20426;-90
2021/11/17 06:38:45;;;;;;;82.13;53.70;;;77.60;2227.20;;;;;;4790953;29;20399;-90
2021/11/17 06:41:13;;;;;;;88.27;52.67;;;77.70;2227.20;;;;;;4790964;29;20449;-90
2021/11/17 06:43:39;;;;;;;77.10;48.37;;;77.70;2227.20;;;;;;4790905;29;20384;-88
2021/11/17 06:46:05;;;;;;;62.17;40.67;;;77.70;2227.20;;;;;;4790820;29;20441;-89
2021/11/17 06:48:33;;;;;;;60.10;35.83;;;102.40;2227.20;;;;;;4790674;29;20374;-91
2021/11/17 06:51:00;;;;;;;56.83;35.10;;;102.40;2227.20;;;;;;4790879;29;20433;-90
2021/11/17 06:53:28;;;;;;;55.97;35.53;;;102.40;2227.20;;;;;;4791072;29;20381;-89
2021/11/17 06:55:56;;;;;;;53.73;34.80;;;102.50;2227.20;;;;;;4790889;29;20372;-89
2021/11/17 06:58:25;;;;;;;53.43;35.97;;;102.50;2227.20;;;;;;4792003;29;20475;-88
2021/11/17 07:00:53;;;;;;;57.83;37.97;;;102.50;2227.20;;;;;;4794249;29;20441;-89
2021/11/17 07:03:20;;;;;;;57.53;37.23;;;102.60;2227.20;;;;;;4795069;29;20472;-89
2021/11/17 07:05:49;;;;;;;70.00;39.37;;;102.70;2227.20;;;;;;4794136;29;20483;-88
2021/11/17 07:08:15;;;;;;;66.87;39.67;;;102.80;2227.20;;;;;;4794030;29;20489;-88
2021/11/17 07:10:42;;;;;;;76.13;43.60;;;102.90;2227.20;;;;;;4794034;29;20496;-93
2021/11/17 07:13:09;;;;;;;72.83;40.87;;;103.00;2227.20;;;;;;4794108;29;20384;-90
2021/11/17 07:15:36;;;;;;;75.50;45.50;;;103.00;2227.20;;;;;;4796367;29;20386;-93
2021/11/17 07:18:02;;;;;;;72.27;43.00;;;103.10;2227.20;;;;;;4796618;29;20384;-89
2021/11/17 07:20:29;;;;;;;65.85;39.42;;;103.10;2227.20;;;;;;4793711;29;20438;-88
2021/11/17 07:22:54;;;;;;;60.43;37.93;;;103.20;2227.20;;;;;;4793670;29;20406;-89
2021/11/17 07:25:22;;;;;;;57.93;37.33;;;103.30;2227.20;;;;;;4793696;29;20034;-87
2021/11/17 07:27:50;;;;;;;59.13;37.10;;;103.30;2227.20;;;;;;4794262;29;20350;-88
2021/11/17 07:30:21;;;;;;;56.75;38.05;;;128.00;2252.80;;;;;;4793732;29;20381;-88
2021/11/17 07:32:49;;;;;;;61.85;40.70;;;128.10;2252.80;;;;;;4793710;29;20419;-88
2021/11/17 07:35:16;;;;;;;75.75;44.63;;;128.30;2252.80;;;;;;4793595;29;20389;-88
2021/11/17 07:37:42;;;;;;;72.93;42.00;;;128.40;2252.80;;;;;;4793456;29;20378;-88
2021/11/17 07:40:11;;;;;;;62.13;40.78;;;128.60;2252.80;;;;;;4793494;29;20396;-88
2021/11/17 07:42:38;;;;;;;73.70;42.58;;;128.70;2252.80;;;;;;4793412;29;20398;-87
2021/11/17 07:45:06;;;;;;;64.47;41.65;;;128.80;2252.80;;;;;;4793912;29;20377;-88
2021/11/17 07:47:32;;;;;;;73.85;45.97;;;153.60;2252.80;;;;;;4793344;29;20388;-88
2021/11/17 07:50:00;;;;;;;71.20;45.35;;;153.80;2252.80;;;;;;4793205;29;20386;-88
2021/11/17 07:52:26;;;;;;;79.32;48.50;;;153.90;2252.80;;;;;;4793296;29;20381;-88
2021/11/17 07:54:52;;;;;;;70.53;42.47;;;154.00;2252.80;;;;;;4793178;29;20452;-89
2021/11/17 07:57:19;;;;;;;60.30;39.28;;;154.20;2252.80;;;;;;4793180;29;20065;-89
2021/11/17 07:59:45;;;;;;;68.03;43.83;;;154.30;2252.80;;;;;;4793177;29;20429;-89
2021/11/17 08:02:14;;;;;;;68.15;40.67;;;154.40;2252.80;;;;;;4793322;29;20450;-91
2021/11/17 08:04:42;;;;;;;60.20;40.17;;;154.50;2252.80;;;;;;4793282;29;20465;-90
2021/11/17 08:07:15;;;;;;;66.80;44.80;;;179.30;2252.80;;;;;;4793670;29;20399;-90
2021/11/17 08:09:44;;;;;;;65.20;40.40;;;179.50;2252.80;;;;;;4793806;29;20357;-91
2021/11/17 08:12:11;;;;;;;59.03;36.90;;;179.60;2252.80;;;;;;4793061;29;20477;-93
2021/11/17 08:14:37;;;;;;;53.22;34.10;;;179.70;2252.80;;;;;;4792807;29;20453;-86
2021/11/17 08:17:04;;;;;;;46.97;34.20;;;179.80;2252.80;;;;;;4792915;29;20027;-90
2021/11/17 08:19:30;;;;;;;52.50;34.08;;;179.90;2252.80;;;;;;4792886;29;20027;-91
2021/11/17 08:21:57;;;;;;;53.08;34.60;;;180.00;2252.80;;;;;;4792796;29;20355;-89
2021/11/17 08:24:24;;;;;;;47.92;31.15;;;204.80;2252.80;;;;;;4793130;29;20350;-96
2021/11/17 08:27:13;;;;;;;50.22;34.05;;;204.90;2252.80;;;;;;5112690;27;20400;-93
2021/11/17 08:29:40;;;;;;;49.50;33.28;;;205.10;2252.80;;;;;;5112064;28;20418;-93
2021/11/17 08:32:07;;;;;;;50.35;34.75;;;205.20;2252.80;;;;;;5111332;28;20073;-93
2021/11/17 08:34:33;;;;;;;48.17;31.27;;;205.30;2252.80;;;;;;5111232;28;20366;-94
2021/11/17 08:36:59;;;;;;;60.28;38.15;;;205.40;2252.80;;;;;;5111155;28;20417;-94
2021/11/17 08:39:25;;;;;;;48.25;33.15;;;205.50;2252.80;;;;;;5111040;28;20405;-94
2021/11/17 08:41:52;;;;;;;49.33;32.53;;;205.60;2252.80;;;;;;5111049;28;20368;-92
2021/11/17 08:44:18;;;;;;;52.78;37.10;;;205.70;2252.80;;;;;;5111175;28;20359;-91
2021/11/17 08:46:44;;;;;;;53.67;37.90;;;230.40;2252.80;;;;;;5110945;28;20357;-92
2021/11/17 08:49:10;;;;;;;55.78;36.20;;;230.50;2252.80;;;;;;5110706;28;20384;-92
2021/11/17 08:51:36;;;;;;;56.65;36.25;;;230.70;2252.80;;;;;;5110840;28;20379;-93
2021/11/17 08:54:03;;;;;;;49.95;32.55;;;230.80;2252.80;;;;;;5110739;28;20436;-92
2021/11/17 08:56:32;;;;;;;54.25;34.05;;;230.90;2252.80;;;;;;5110905;28;20066;-93
2021/11/17 08:58:58;;;;;;;49.55;33.72;;;231.00;2252.80;;;;;;5110695;28;20349;-93
2021/11/17 09:01:25;;;;;;;51.13;33.47;;;231.10;2252.80;;;;;;5110852;28;20372;-95
2021/11/17 09:03:51;;;;;;;44.45;32.40;;;231.30;2252.80;;;;;;5110773;28;20451;-91
2021/11/17 09:06:19;;;;;;;56.67;36.40;;;256.30;2252.80;;;;;;5110584;28;20052;-94
2021/11/17 09:08:47;;;;;;;66.85;40.45;;;256.60;2252.80;;;;;;5110393;28;20054;-93
2021/11/17 09:11:18;;;;;;;71.32;42.75;;;282.10;2176.00;;;;;;5110393;28;20444;-94
2021/11/17 09:13:46;;;;;;;64.85;39.42;;;282.20;2150.40;;;;;;5110380;28;20016;-92
2021/11/17 09:16:13;;;;;;;60.22;37.05;;;307.20;2150.40;;;;;;5110449;28;20384;-92
2021/11/17 09:18:43;;;;;;;50.20;32.20;;;307.40;2099.20;;;;;;5110370;28;20376;-95
2021/11/17 09:21:16;;;;;;;50.97;33.83;;;307.40;2124.80;;;;;;5110360;28;20059;-91
2021/11/17 09:23:43;;;;;;;51.00;34.78;;;307.40;2099.20;;;;;;5110453;28;20426;-92
2021/11/17 09:26:10;;;;;;;45.17;30.92;;;308.00;2048.00;;;;;;5109917;28;20458;-93
2021/11/17 09:28:37;;;;;;;48.72;34.38;;;333.30;1971.20;;;;;;5110105;28;20372;-90
2021/11/17 09:31:05;;;;;;;51.97;34.40;;;333.50;1971.20;;;;;;5110063;28;20023;-90
2021/11/17 09:33:33;;;;;;;47.85;32.53;;;358.80;1894.40;;;;;;5109847;28;20448;-90
2021/11/17 09:35:59;;;;;;;40.40;31.52;;;358.50;1868.80;;;;;;5110065;28;20372;-91
2021/11/17 09:38:26;;;;;;;39.35;28.90;;;333.50;1920.00;;;;;;5096153;28;20411;-90
2021/11/17 09:41:03;;;;;;;32.97;26.58;;;358.50;1894.40;;;;;;5096320;28;20070;-90
2021/11/17 09:43:34;;;;;;;38.40;27.30;;;333.70;1920.00;;;;;;5096301;28;20481;-90
2021/11/17 09:46:03;;;;;;;36.95;27.88;;;358.40;1894.40;;;;;;5096785;28;20372;-93
2021/11/17 09:48:37;;;;;;;37.13;28.02;;;333.40;1971.20;;;;;;5096268;28;20345;-92
2021/11/17 09:51:26;;;;;;;45.90;31.10;;;333.10;1996.80;;;;;;5096199;28;20077;-88
2021/11/17 09:54:57;;;;;;;42.33;30.77;;;333.30;1996.80;;;;;;5078921;28;20403;-88
2021/11/17 09:57:29;;;;;;;43.15;32.38;;;358.40;1945.60;;;;;;5015832;28;20381;-92
2021/11/17 10:00:05;;;;;;;43.38;31.65;;;384.10;1843.20;;;;;;5019955;28;20553;-93
2021/11/17 10:02:39;;;;;;;46.67;32.17;;;460.90;1561.60;;;;;;5064903;28;20411;-91
2021/11/17 10:05:45;;;;;;;39.97;27.73;;;461.00;1536.00;;;;;;5079019;28;20374;-94
2021/11/17 10:13:55;;;;;;;25.33;21.38;;;461.10;1484.80;;;;;;5095409;28;20514;-89
2021/11/17 10:16:23;;;;;;;31.15;21.02;;;461.40;1459.20;;;;;;5078019;28;20038;-95
2021/11/17 10:19:27;;;;;;;29.08;19.90;;;461.00;1433.60;;;;;;5078345;28;20416;-93
2021/11/17 10:22:03;;;;;;;31.70;21.55;;;461.30;1459.20;;;;;;5078644;28;20449;-93
2021/11/17 10:25:04;;;;;;;24.17;18.00;;;435.80;1459.20;;;;;;5082940;28;20435;-94
2021/11/17 10:27:31;;;;;;;29.55;22.52;;;461.40;1408.00;;;;;;5088129;28;20377;-88
2021/11/17 10:30:01;;;;;;;28.63;20.23;;;461.20;1433.60;;;;;;5095232;28;20343;-89
2021/11/17 10:32:34;;;;;;;33.00;24.17;;;435.60;1433.60;;;;;;5096191;28;20439;-88
2021/11/17 10:35:26;;;;;;;34.67;22.85;;;435.20;1536.00;;;;;;5095101;28;20031;-88
2021/11/17 10:38:22;;;;;;;29.38;23.92;;;410.50;1587.20;;;;;;5095656;28;20483;-88
2021/11/17 10:40:53;;;;;;;25.38;20.23;;;435.80;1510.40;;;;;;5095529;28;20338;-91
2021/11/17 10:43:49;;;;;;;25.25;18.90;;;487.20;1305.60;;;;;;5095156;28;20480;-90
2021/11/17 10:46:21;;;;;;;22.02;17.17;;;537.70;1280.00;;;;;;5094705;28;20388;-91
2021/11/17 10:48:57;;;;;;;22.77;16.10;;;563.60;1152.00;;;;;;5093869;28;20415;-90
2021/11/17 10:51:34;;;;;;;21.45;17.38;;;512.60;1203.20;;;;;;5094755;28;20413;-90
2021/11/17 10:54:09;;;;;;;22.67;17.77;;;461.10;1356.80;;;;;;5095309;28;20464;-94
2021/11/17 10:56:37;;;;;;;22.17;17.67;;;435.20;1459.20;;;;;;5094878;28;20372;-93
2021/11/17 10:59:05;;;;;;;25.20;18.48;;;435.20;1484.80;;;;;;5094669;28;20432;-93
2021/11/17 11:01:40;;;;;;;27.83;18.98;;;410.40;1510.40;;;;;;5094920;28;20395;-95
2021/11/17 11:04:23;;;;;;;22.20;16.27;;;409.80;1561.60;;;;;;5096337;28;20409;-94
2021/11/17 11:06:53;;;;;;;22.02;16.27;;;384.30;1587.20;;;;;;5094840;28;20376;-92
2021/11/17 11:09:32;;;;;;;24.02;17.63;;;359.30;1945.60;;;;;;5095025;28;20345;-93
2021/11/17 11:12:01;;;;;;;23.58;17.27;;;359.20;1689.60;;;;;;5094511;28;20372;-94
2021/11/17 11:14:37;;;;;;;29.30;18.55;;;359.20;1664.00;;;;;;5094417;28;20474;-94
2021/11/17 11:17:28;;;;;;;24.02;17.85;;;359.10;1689.60;;;;;;5095012;28;20460;-93
2021/11/17 11:20:16;;;;;;;28.88;20.20;;;358.90;1740.80;;;;;;5094380;28;20437;-93
2021/11/17 11:23:17;;;;;;;26.25;18.95;;;358.90;1740.80;;;;;;5094308;28;20490;-93
2021/11/17 11:25:53;;;;;;;21.23;17.10;;;358.80;1740.80;;;;;;5062222;28;20468;-94
2021/11/17 11:28:22;;;;;;;22.10;17.52;;;358.80;1740.80;;;;;;5094217;28;20482;-93
2021/11/17 11:31:00;;;;;;;22.55;17.75;;;358.80;1740.80;;;;;;5094345;28;20466;-93
2021/11/17 11:33:55;;;;;;;21.23;15.52;;;358.80;1740.80;;;;;;5094536;28;20413;-94
2021/11/17 11:36:39;;;;;;;26.33;18.65;;;358.90;1740.80;;;;;;5097148;28;20016;-94
2021/11/17 11:39:05;;;;;;;24.60;18.52;;;359.10;1715.20;;;;;;5108266;28;20024;-94
2021/11/17 11:41:36;;;;;;;26.85;19.55;;;359.30;1715.20;;;;;;5106516;28;20380;-94
2021/11/17 11:44:18;;;;;;;24.35;17.95;;;359.20;1715.20;;;;;;5098119;28;20410;-94
2021/11/17 11:47:08;;;;;;;25.17;19.40;;;359.20;1689.60;;;;;;5093792;28;20488;-93
2021/11/17 11:49:38;;;;;;;26.27;18.55;;;359.20;1715.20;;;;;;5086153;28;20451;-93
2021/11/17 11:52:19;;;;;;;26.92;17.08;;;359.20;1715.20;;;;;;5093775;28;20477;-94
2021/11/17 11:54:51;;;;;;;27.05;18.40;;;384.00;1689.60;;;;;;5093840;28;20382;-93
2021/11/17 11:57:37;;;;;;;51.50;26.92;;;384.30;1664.00;;;;;;5093709;28;20461;-93
2021/11/17 12:00:09;;;;;;;47.90;23.42;;;384.40;1664.00;;;;;;5093791;28;20398;-93
2021/11/17 12:02:40;;;;;;;26.05;17.92;;;410.00;1587.20;;;;;;5093648;28;20066;-93
2021/11/17 12:05:21;;;;;;;23.88;18.02;;;461.50;1382.40;;;;;;5093644;28;20380;-93
2021/11/17 12:07:55;;;;;;;28.35;19.83;;;436.00;1408.00;;;;;;5093659;28;20547;-93
2021/11/17 12:10:24;;;;;;;36.33;23.98;;;435.40;1484.80;;;;;;5094193;28;20467;-93
2021/11/17 12:12:50;;;;;;;34.55;20.52;;;436.00;1408.00;;;;;;5094417;28;20478;-93
2021/11/17 12:15:33;;;;;;;28.20;20.42;;;436.10;1408.00;;;;;;5093555;28;20526;-93
2021/11/17 12:18:12;;;;;;;18.02;14.88;;;435.80;1433.60;;;;;;5093472;28;20364;-93
2021/11/17 12:20:43;;;;;;;33.08;20.10;;;410.30;1510.40;;;;;;5093739;28;20356;-94
2021/11/17 12:23:42;;;;;;;20.08;16.30;;;410.30;1510.40;;;;;;5093922;28;20390;-94
2021/11/17 12:26:17;;;;;;;23.30;15.63;;;410.10;1510.40;;;;;;5093287;28;20495;-91
2021/11/17 12:28:58;;;;;;;22.52;16.38;;;410.40;1484.80;;;;;;5093495;28;20371;-92
2021/11/17 12:31:36;;;;;;;25.85;19.23;;;410.40;1484.80;;;;;;5093464;28;20418;-89
2021/11/17 12:34:29;;;;;;;21.63;16.92;;;410.30;1510.40;;;;;;5093345;28;20040;-91
2021/11/17 12:37:03;;;;;;;17.77;15.15;;;435.60;1433.60;;;;;;5093839;28;20346;-91
2021/11/17 12:39:48;;;;;;;20.42;16.33;;;537.60;1228.80;;;;;;5093908;28;20337;-91
2021/11/17 12:42:21;;;;;;;17.80;15.38;;;589.60;1024.00;;;;;;5093485;28;20448;-90
2021/11/17 12:44:50;;;;;;;63.95;49.03;;;563.60;1100.80;;;;;;5093392;28;20372;-89
2021/11/17 12:47:41;;;;;;;20.73;15.15;;;588.80;1049.60;;;;;;5094502;28;20342;-91
2021/11/17 12:50:16;;;;;;;18.42;14.82;;;538.40;1126.40;;;;;;5093564;28;20390;-90
2021/11/17 12:52:54;;;;;;;20.20;16.00;;;538.20;1100.80;;;;;;5093226;28;20487;-91
2021/11/17 12:55:32;;;;;;;23.27;16.80;;;512.20;1152.00;;;;;;5093144;28;20374;-90
2021/11/17 12:58:14;;;;;;;32.97;21.35;;;512.10;1203.20;;;;;;5093161;28;20353;-90
2021/11/17 13:01:09;;;;;;;52.90;32.78;;;537.90;1152.00;;;;;;5093116;28;20457;-91
2021/11/17 13:03:54;;;;;;;68.35;42.85;;;538.20;1126.40;;;;;;5089929;28;20399;-90
2021/11/17 13:06:40;;;;;;;40.75;28.08;;;564.00;1075.20;;;;;;5092902;28;20418;-90
2021/11/17 13:09:17;;;;;;;27.33;20.00;;;640.30;921.60;;;;;;5094260;28;20450;-90
2021/11/17 13:12:02;;;;;;;25.55;16.95;;;665.70;896.00;;;;;;5093437;28;20390;-92
2021/11/17 13:14:36;;;;;;;29.38;19.50;;;665.70;896.00;;;;;;5096981;28;20372;-93
2021/11/17 13:17:19;;;;;;;24.80;18.42;;;665.90;870.40;;;;;;5097068;28;20365;-95
2021/11/17 13:19:52;;;;;;;37.95;30.15;;;666.00;870.40;;;;;;5097250;28;20368;-92
2021/11/17 13:22:34;;;;;;;27.83;21.60;;;665.90;870.40;;;;;;5096770;28;20364;-90
2021/11/17 13:25:21;;;;;;;24.58;21.58;;;666.20;844.80;;;;;;5096338;28;20364;-91
2021/11/17 13:28:01;;;;;;;30.25;23.02;;;665.80;870.40;;;;;;5096665;28;20376;-91
2021/11/17 13:30:42;;;;;;;25.38;19.95;;;665.60;896.00;;;;;;5097196;28;20322;-91
2021/11/17 13:33:32;;;;;;;36.70;24.75;;;640.80;870.40;;;;;;5096952;28;20364;-92
2021/11/17 13:36:16;;;;;;;33.25;20.40;;;665.60;870.40;;;;;;5096379;28;20353;-91
2021/11/17 13:38:57;;;;;;;28.20;19.27;;;640.80;844.80;;;;;;5097315;28;20345;-91
2021/11/17 13:41:23;;;;;;;31.55;22.38;;;640.40;870.40;;;;;;5096647;28;20369;-91
2021/11/17 13:43:50;;;;;;;30.90;22.48;;;640.20;896.00;;;;;;5096487;28;20372;-91
2021/11/17 13:46:20;;;;;;;30.70;23.10;;;615.00;947.20;;;;;;5096195;28;20439;-91
2021/11/17 13:48:49;;;;;;;29.60;20.10;;;614.80;947.20;;;;;;5097125;28;20349;-95
2021/11/17 13:51:24;;;;;;;42.75;28.83;;;614.60;947.20;;;;;;5096225;28;20484;-95
2021/11/17 13:53:50;;;;;;;36.38;25.23;;;589.50;972.80;;;;;;5096875;28;20352;-91
2021/11/17 13:56:32;;;;;;;30.48;22.48;;;589.10;998.40;;;;;;5096056;28;20496;-91
2021/11/17 13:58:59;;;;;;;74.55;45.13;;;564.00;1024.00;;;;;;5096220;28;20405;-90
2021/11/17 14:01:25;;;;;;;52.40;28.67;;;563.20;1075.20;;;;;;5112809;28;20376;-90
2021/11/17 14:03:51;;;;;;;71.18;41.55;;;538.10;1075.20;;;;;;5096343;28;20516;-91
2021/11/17 14:06:20;;;;;;;66.95;45.42;;;486.90;1228.80;;;;;;5095754;28;20488;-90
2021/11/17 14:08:47;;;;;;;89.80;51.95;;;461.10;1331.20;;;;;;5095699;28;20013;-91
2021/11/17 14:11:15;;;;;;;97.93;57.67;;;435.30;1433.60;;;;;;5095913;28;20371;-94
2021/11/17 14:13:42;;;;;;;70.13;42.15;;;409.70;1536.00;;;;;;5095741;28;20058;-92
2021/11/17 14:16:09;;;;;;;56.20;33.42;;;384.60;1536.00;;;;;;5095473;28;20346;-89
2021/11/17 14:18:35;;;;;;;82.88;47.30;;;384.20;1561.60;;;;;;5095648;28;20035;-89
2021/11/17 14:21:03;;;;;;;54.60;35.78;;;359.10;1638.40;;;;;;5095427;28;20368;-90
2021/11/17 14:23:30;;;;;;;66.75;37.33;;;358.90;1664.00;;;;;;5095422;28;20376;-89
2021/11/17 14:25:56;;;;;;;63.92;39.47;;;358.60;1715.20;;;;;;5095070;28;20513;-94
2021/11/17 14:28:30;;;;;;;61.38;40.97;;;358.40;1766.40;;;;;;5095329;28;20391;-94
2021/11/17 14:31:07;;;;;;;55.22;39.30;;;333.60;1792.00;;;;;;5095116;28;20361;-90
2021/11/17 14:33:34;;;;;;;66.38;47.92;;;333.50;1792.00;;;;;;5096317;28;20018;-91
2021/11/17 14:36:10;;;;;;;72.90;54.60;;;333.30;1817.60;;;;;;5095151;28;20406;-94
2021/11/17 14:38:37;;;;;;;83.88;52.95;;;333.10;1843.20;;;;;;5095546;28;20479;-95
2021/11/17 14:41:04;;;;;;;80.78;50.05;;;333.00;1868.80;;;;;;5095131;28;20418;-94
2021/11/17 14:43:31;;;;;;;94.78;50.70;;;332.90;1894.40;;;;;;5095157;28;20368;-94
2021/11/17 14:45:57;;;;;;;126.30;67.35;;;308.10;1894.40;;;;;;5095000;28;20024;-93
2021/11/17 14:48:24;;;;;;;95.72;50.05;;;308.00;1920.00;;;;;;5095008;28;20462;-94
2021/11/17 14:50:53;;;;;;;89.80;50.38;;;307.90;1945.60;;;;;;5095000;28;20372;-93
2021/11/17 14:53:21;;;;;;;79.93;51.72;;;307.90;1945.60;;;;;;5094753;28;20452;-93
2021/11/17 14:55:47;;;;;;;51.15;35.42;;;307.70;1971.20;;;;;;5094795;28;20035;-93
2021/11/17 14:58:13;;;;;;;87.03;32.50;;;307.70;1971.20;;;;;;5094720;28;20376;-94
2021/11/17 15:00:48;;;;;;;66.13;34.33;;;307.80;1971.20;;;;;;5094906;28;20372;-93
2021/11/17 15:03:15;;;;;;;47.75;31.98;;;307.70;1996.80;;;;;;5094632;28;20417;-94
2021/11/17 15:05:41;;;;;;;57.95;32.65;;;307.60;2022.40;;;;;;5095039;28;20031;-94
2021/11/17 15:08:07;;;;;;;58.75;34.17;;;307.60;2022.40;;;;;;5094391;28;20375;-93
2021/11/17 15:10:34;;;;;;;72.60;38.05;;;307.50;2048.00;;;;;;5094529;28;20052;-93
2021/11/17 15:13:01;;;;;;;82.22;42.90;;;307.40;2048.00;;;;;;5094309;28;20111;-93
2021/11/17 15:15:39;;;;;;;75.50;43.13;;;307.40;2073.60;;;;;;5094246;28;20461;-93
2021/11/17 15:18:06;;;;;;;70.15;41.63;;;307.30;2073.60;;;;;;5094350;28;20421;-93